sensor_id;sensor_type;location;lat;lon;timestamp;temperature;humidity
39875;DHT22;25547;52.530;13.194;2023-01-24T00:02:21;2.50;99.90
39875;DHT22;25547;52.530;13.194;2023-01-24T00:04:46;2.60;99.90
39875;DHT22;25547;52.530;13.194;2023-01-24T00:07:13;2.70;99.90
39875;DHT22;25547;52.530;13.194;2023-01-24T00:09:41;2.60;99.90
39875;DHT22;25547;52.530;13.194;2023-01-24T00:12:06;2.60;99.90
39875;DHT22;25547;52.530;13.194;2023-01-24T00:14:32;2.60;99.90
39875;DHT22;25547;52.530;13.194;2023-01-24T00:17:02;2.50;99.90
39875;DHT22;25547;52.530;13.194;2023-01-24T00:19:28;2.60;99.90
39875;DHT22;25547;52.530;13.194;2023-01-24T00:21:56;2.60;99.90
39875;DHT22;25547;52.530;13.194;2023-01-24T00:24:26;2.40;99.90
39875;DHT22;25547;52.530;13.194;2023-01-24T00:26:54;2.30;99.90
39875;DHT22;25547;52.530;13.194;2023-01-24T00:29:19;2.40;99.90
39875;DHT22;25547;52.530;13.194;2023-01-24T00:31:47;2.40;99.90
39875;DHT22;25547;52.530;13.194;2023-01-24T00:34:13;2.50;99.90
39875;DHT22;25547;52.530;13.194;2023-01-24T00:36:39;2.50;99.90
39875;DHT22;25547;52.530;13.194;2023-01-24T00:39:06;2.50;99.90
39875;DHT22;25547;52.530;13.194;2023-01-24T00:41:32;2.60;99.90
39875;DHT22;25547;52.530;13.194;2023-01-24T00:44:00;2.60;99.90
39875;DHT22;25547;52.530;13.194;2023-01-24T00:46:26;2.60;99.90
39875;DHT22;25547;52.530;13.194;2023-01-24T00:48:55;2.60;99.90
39875;DHT22;25547;52.530;13.194;2023-01-24T00:51:25;2.60;99.90
39875;DHT22;25547;52.530;13.194;2023-01-24T00:53:51;2.60;99.90
39875;DHT22;25547;52.530;13.194;2023-01-24T00:56:16;2.60;99.90
39875;DHT22;25547;52.530;13.194;2023-01-24T00:58:42;2.50;99.90
39875;DHT22;25547;52.530;13.194;2023-01-24T01:01:12;2.50;99.90
39875;DHT22;25547;52.530;13.194;2023-01-24T01:03:37;2.50;99.90
39875;DHT22;25547;52.530;13.194;2023-01-24T01:06:15;2.50;99.90
39875;DHT22;25547;52.530;13.194;2023-01-24T01:08:41;2.50;99.90
39875;DHT22;25547;52.530;13.194;2023-01-24T01:11:09;2.40;99.90
39875;DHT22;25547;52.530;13.194;2023-01-24T01:13:35;2.40;99.90
39875;DHT22;25547;52.530;13.194;2023-01-24T01:16:14;2.40;99.90
39875;DHT22;25547;52.530;13.194;2023-01-24T01:18:41;2.40;99.90
39875;DHT22;25547;52.530;13.194;2023-01-24T01:21:16;2.40;99.90
39875;DHT22;25547;52.530;13.194;2023-01-24T01:23:42;2.20;99.90
39875;DHT22;25547;52.530;13.194;2023-01-24T01:26:10;2.30;99.90
39875;DHT22;25547;52.530;13.194;2023-01-24T01:28:40;2.20;99.90
39875;DHT22;25547;52.530;13.194;2023-01-24T01:31:08;2.20;99.90
39875;DHT22;25547;52.530;13.194;2023-01-24T01:33:34;2.10;99.90
39875;DHT22;25547;52.530;13.194;2023-01-24T01:36:02;2.10;99.90
39875;DHT22;25547;52.530;13.194;2023-01-24T01:38:27;2.20;99.90
39875;DHT22;25547;52.530;13.194;2023-01-24T01:40:54;2.30;99.90
39875;DHT22;25547;52.530;13.194;2023-01-24T01:43:23;2.20;99.90
39875;DHT22;25547;52.530;13.194;2023-01-24T01:45:58;2.30;99.90
39875;DHT22;25547;52.530;13.194;2023-01-24T01:48:38;2.40;99.90
39875;DHT22;25547;52.530;13.194;2023-01-24T01:51:29;2.40;99.90
39875;DHT22;25547;52.530;13.194;2023-01-24T01:54:00;2.50;99.90
39875;DHT22;25547;52.530;13.194;2023-01-24T01:57:03;2.40;99.90
39875;DHT22;25547;52.530;13.194;2023-01-24T01:59:38;2.30;99.90
39875;DHT22;25547;52.530;13.194;2023-01-24T02:02:06;2.30;99.90
39875;DHT22;25547;52.530;13.194;2023-01-24T02:04:35;2.30;99.90
39875;DHT22;25547;52.530;13.194;2023-01-24T02:07:16;2.30;99.90
39875;DHT22;25547;52.530;13.194;2023-01-24T02:09:50;2.30;99.90
39875;DHT22;25547;52.530;13.194;2023-01-24T02:12:21;2.30;99.90
39875;DHT22;25547;52.530;13.194;2023-01-24T02:14:50;2.20;99.90
39875;DHT22;25547;52.530;13.194;2023-01-24T02:17:35;2.10;99.90
39875;DHT22;25547;52.530;13.194;2023-01-24T02:25:42;2.20;99.90
39875;DHT22;25547;52.530;13.194;2023-01-24T02:28:08;2.10;99.90
39875;DHT22;25547;52.530;13.194;2023-01-24T02:30:38;2.20;99.90
39875;DHT22;25547;52.530;13.194;2023-01-24T02:33:21;2.10;99.90
39875;DHT22;25547;52.530;13.194;2023-01-24T02:35:47;2.00;99.90
39875;DHT22;25547;52.530;13.194;2023-01-24T02:38:22;1.90;99.90
39875;DHT22;25547;52.530;13.194;2023-01-24T02:40:53;1.90;99.90
39875;DHT22;25547;52.530;13.194;2023-01-24T02:43:23;1.90;99.90
39875;DHT22;25547;52.530;13.194;2023-01-24T02:45:51;1.90;99.90
39875;DHT22;25547;52.530;13.194;2023-01-24T02:48:16;1.90;99.90
39875;DHT22;25547;52.530;13.194;2023-01-24T02:50:42;1.90;99.90
39875;DHT22;25547;52.530;13.194;2023-01-24T02:53:26;1.80;99.90
39875;DHT22;25547;52.530;13.194;2023-01-24T02:55:55;1.80;99.90
39875;DHT22;25547;52.530;13.194;2023-01-24T02:58:41;1.90;99.90
39875;DHT22;25547;52.530;13.194;2023-01-24T03:01:07;1.90;99.90
39875;DHT22;25547;52.530;13.194;2023-01-24T03:03:35;2.10;99.90
39875;DHT22;25547;52.530;13.194;2023-01-24T03:06:04;1.90;99.90
39875;DHT22;25547;52.530;13.194;2023-01-24T03:08:32;1.80;99.90
39875;DHT22;25547;52.530;13.194;2023-01-24T03:11:01;1.60;99.90
39875;DHT22;25547;52.530;13.194;2023-01-24T03:13:29;1.60;99.90
39875;DHT22;25547;52.530;13.194;2023-01-24T03:16:14;1.70;99.90
39875;DHT22;25547;52.530;13.194;2023-01-24T03:18:58;1.80;99.90
39875;DHT22;25547;52.530;13.194;2023-01-24T03:21:43;1.90;99.90
39875;DHT22;25547;52.530;13.194;2023-01-24T03:24:30;1.90;99.90
39875;DHT22;25547;52.530;13.194;2023-01-24T03:27:14;1.80;99.90
39875;DHT22;25547;52.530;13.194;2023-01-24T03:30:01;1.90;99.90
39875;DHT22;25547;52.530;13.194;2023-01-24T03:32:46;1.70;99.90
39875;DHT22;25547;52.530;13.194;2023-01-24T03:35:30;1.60;99.90
39875;DHT22;25547;52.530;13.194;2023-01-24T03:37:56;1.70;99.90
39875;DHT22;25547;52.530;13.194;2023-01-24T03:40:43;1.70;99.90
39875;DHT22;25547;52.530;13.194;2023-01-24T03:43:11;1.60;99.90
39875;DHT22;25547;52.530;13.194;2023-01-24T03:45:38;1.60;99.90
39875;DHT22;25547;52.530;13.194;2023-01-24T03:48:06;1.60;99.90
39875;DHT22;25547;52.530;13.194;2023-01-24T03:50:41;1.70;99.90
39875;DHT22;25547;52.530;13.194;2023-01-24T03:53:28;1.70;99.90
39875;DHT22;25547;52.530;13.194;2023-01-24T03:55:59;1.70;99.90
39875;DHT22;25547;52.530;13.194;2023-01-24T03:58:28;1.70;99.90
39875;DHT22;25547;52.530;13.194;2023-01-24T04:00:54;1.70;99.90
39875;DHT22;25547;52.530;13.194;2023-01-24T04:03:24;1.70;99.90
39875;DHT22;25547;52.530;13.194;2023-01-24T04:05:50;1.70;99.90
39875;DHT22;25547;52.530;13.194;2023-01-24T04:08:17;1.60;99.90
39875;DHT22;25547;52.530;13.194;2023-01-24T04:10:43;1.60;99.90
39875;DHT22;25547;52.530;13.194;2023-01-24T04:13:12;1.60;99.90
39875;DHT22;25547;52.530;13.194;2023-01-24T04:15:38;1.70;99.90
39875;DHT22;25547;52.530;13.194;2023-01-24T04:18:06;1.60;99.90
39875;DHT22;25547;52.530;13.194;2023-01-24T04:20:35;1.60;99.90
39875;DHT22;25547;52.530;13.194;2023-01-24T04:23:06;1.60;99.90
39875;DHT22;25547;52.530;13.194;2023-01-24T04:25:32;1.60;99.90
39875;DHT22;25547;52.530;13.194;2023-01-24T04:27:58;1.60;99.90
39875;DHT22;25547;52.530;13.194;2023-01-24T04:30:26;1.60;99.90
39875;DHT22;25547;52.530;13.194;2023-01-24T04:32:52;1.60;99.90
39875;DHT22;25547;52.530;13.194;2023-01-24T04:35:20;1.60;99.90
39875;DHT22;25547;52.530;13.194;2023-01-24T04:37:47;1.60;99.90
39875;DHT22;25547;52.530;13.194;2023-01-24T04:40:13;1.60;99.90
39875;DHT22;25547;52.530;13.194;2023-01-24T04:42:42;1.60;99.90
39875;DHT22;25547;52.530;13.194;2023-01-24T04:45:09;1.70;99.90
39875;DHT22;25547;52.530;13.194;2023-01-24T04:47:35;1.50;99.90
39875;DHT22;25547;52.530;13.194;2023-01-24T04:50:01;1.50;99.90
39875;DHT22;25547;52.530;13.194;2023-01-24T04:52:27;1.60;99.90
39875;DHT22;25547;52.530;13.194;2023-01-24T04:54:53;1.60;99.90
39875;DHT22;25547;52.530;13.194;2023-01-24T04:57:18;1.70;99.90
39875;DHT22;25547;52.530;13.194;2023-01-24T04:59:44;1.70;99.90
39875;DHT22;25547;52.530;13.194;2023-01-24T05:02:10;1.80;99.90
39875;DHT22;25547;52.530;13.194;2023-01-24T05:04:37;1.80;99.90
39875;DHT22;25547;52.530;13.194;2023-01-24T05:07:04;1.80;99.90
39875;DHT22;25547;52.530;13.194;2023-01-24T05:09:29;1.90;99.90
39875;DHT22;25547;52.530;13.194;2023-01-24T05:11:55;1.90;99.90
39875;DHT22;25547;52.530;13.194;2023-01-24T05:14:23;1.90;99.90
39875;DHT22;25547;52.530;13.194;2023-01-24T05:16:51;1.90;99.90
39875;DHT22;25547;52.530;13.194;2023-01-24T05:19:16;1.80;99.90
39875;DHT22;25547;52.530;13.194;2023-01-24T05:21:44;1.80;99.90
39875;DHT22;25547;52.530;13.194;2023-01-24T05:24:10;1.80;99.90
39875;DHT22;25547;52.530;13.194;2023-01-24T05:26:38;1.80;99.90
39875;DHT22;25547;52.530;13.194;2023-01-24T05:29:06;1.70;99.90
39875;DHT22;25547;52.530;13.194;2023-01-24T05:31:33;1.60;99.90
39875;DHT22;25547;52.530;13.194;2023-01-24T05:34:01;1.60;99.90
39875;DHT22;25547;52.530;13.194;2023-01-24T05:36:30;1.60;99.90
39875;DHT22;25547;52.530;13.194;2023-01-24T05:38:58;1.60;99.90
39875;DHT22;25547;52.530;13.194;2023-01-24T05:41:24;1.60;99.90
39875;DHT22;25547;52.530;13.194;2023-01-24T05:43:52;1.70;99.90
39875;DHT22;25547;52.530;13.194;2023-01-24T05:46:21;1.70;99.90
39875;DHT22;25547;52.530;13.194;2023-01-24T05:54:00;1.70;99.90
39875;DHT22;25547;52.530;13.194;2023-01-24T05:56:25;1.60;99.90
39875;DHT22;25547;52.530;13.194;2023-01-24T05:58:52;1.60;99.90
39875;DHT22;25547;52.530;13.194;2023-01-24T06:01:20;1.60;99.90
39875;DHT22;25547;52.530;13.194;2023-01-24T06:03:48;1.60;99.90
39875;DHT22;25547;52.530;13.194;2023-01-24T06:06:17;1.60;99.90
39875;DHT22;25547;52.530;13.194;2023-01-24T06:08:47;1.60;99.90
39875;DHT22;25547;52.530;13.194;2023-01-24T06:11:21;1.60;99.90
39875;DHT22;25547;52.530;13.194;2023-01-24T06:13:47;1.60;99.90
39875;DHT22;25547;52.530;13.194;2023-01-24T06:16:18;1.70;99.90
39875;DHT22;25547;52.530;13.194;2023-01-24T06:18:47;1.60;99.90
39875;DHT22;25547;52.530;13.194;2023-01-24T06:23:39;1.60;99.90
39875;DHT22;25547;52.530;13.194;2023-01-24T06:26:10;1.60;99.90
39875;DHT22;25547;52.530;13.194;2023-01-24T06:28:37;1.50;99.90
39875;DHT22;25547;52.530;13.194;2023-01-24T06:34:00;1.60;99.90
39875;DHT22;25547;52.530;13.194;2023-01-24T06:36:36;1.50;99.90
39875;DHT22;25547;52.530;13.194;2023-01-24T06:39:03;1.60;99.90
39875;DHT22;25547;52.530;13.194;2023-01-24T06:41:29;1.50;99.90
39875;DHT22;25547;52.530;13.194;2023-01-24T06:43:55;1.50;99.90
39875;DHT22;25547;52.530;13.194;2023-01-24T06:46:20;1.60;99.90
39875;DHT22;25547;52.530;13.194;2023-01-24T06:48:48;1.50;99.90
39875;DHT22;25547;52.530;13.194;2023-01-24T06:51:14;1.50;99.90
39875;DHT22;25547;52.530;13.194;2023-01-24T06:53:40;1.50;99.90
39875;DHT22;25547;52.530;13.194;2023-01-24T06:56:06;1.50;99.90
39875;DHT22;25547;52.530;13.194;2023-01-24T06:58:35;1.50;99.90
39875;DHT22;25547;52.530;13.194;2023-01-24T07:01:01;1.60;99.90
39875;DHT22;25547;52.530;13.194;2023-01-24T07:03:29;1.50;99.90
39875;DHT22;25547;52.530;13.194;2023-01-24T07:05:57;1.40;99.90
39875;DHT22;25547;52.530;13.194;2023-01-24T07:08:23;1.50;99.90
39875;DHT22;25547;52.530;13.194;2023-01-24T07:10:48;1.60;99.90
39875;DHT22;25547;52.530;13.194;2023-01-24T07:13:14;1.70;99.90
39875;DHT22;25547;52.530;13.194;2023-01-24T07:15:42;1.70;99.90
39875;DHT22;25547;52.530;13.194;2023-01-24T07:18:12;1.60;99.90
39875;DHT22;25547;52.530;13.194;2023-01-24T07:20:38;1.60;99.90
39875;DHT22;25547;52.530;13.194;2023-01-24T07:23:07;1.70;99.90
39875;DHT22;25547;52.530;13.194;2023-01-24T07:25:41;1.70;99.90
39875;DHT22;25547;52.530;13.194;2023-01-24T07:28:08;1.80;99.90
39875;DHT22;25547;52.530;13.194;2023-01-24T07:30:34;1.80;99.90
39875;DHT22;25547;52.530;13.194;2023-01-24T07:32:59;1.70;99.90
39875;DHT22;25547;52.530;13.194;2023-01-24T07:35:27;1.80;99.90
39875;DHT22;25547;52.530;13.194;2023-01-24T07:37:52;1.70;99.90
39875;DHT22;25547;52.530;13.194;2023-01-24T07:40:18;1.70;99.90
39875;DHT22;25547;52.530;13.194;2023-01-24T07:42:46;1.70;99.90
39875;DHT22;25547;52.530;13.194;2023-01-24T07:45:14;1.70;99.90
39875;DHT22;25547;52.530;13.194;2023-01-24T07:47:40;1.60;99.90
39875;DHT22;25547;52.530;13.194;2023-01-24T07:50:06;1.70;99.90
39875;DHT22;25547;52.530;13.194;2023-01-24T07:52:34;1.60;99.90
39875;DHT22;25547;52.530;13.194;2023-01-24T07:54:59;1.80;99.90
39875;DHT22;25547;52.530;13.194;2023-01-24T07:57:25;1.80;99.90
39875;DHT22;25547;52.530;13.194;2023-01-24T07:59:50;1.80;99.90
39875;DHT22;25547;52.530;13.194;2023-01-24T08:02:18;1.80;99.90
39875;DHT22;25547;52.530;13.194;2023-01-24T08:04:44;1.80;99.90
39875;DHT22;25547;52.530;13.194;2023-01-24T08:07:12;1.80;99.90
39875;DHT22;25547;52.530;13.194;2023-01-24T08:09:48;1.80;99.90
39875;DHT22;25547;52.530;13.194;2023-01-24T08:12:16;2.00;99.90
39875;DHT22;25547;52.530;13.194;2023-01-24T08:14:44;2.00;99.90
39875;DHT22;25547;52.530;13.194;2023-01-24T08:17:09;2.00;99.90
39875;DHT22;25547;52.530;13.194;2023-01-24T08:19:37;1.90;99.90
39875;DHT22;25547;52.530;13.194;2023-01-24T08:22:06;1.80;99.90
39875;DHT22;25547;52.530;13.194;2023-01-24T08:24:32;1.90;99.90
39875;DHT22;25547;52.530;13.194;2023-01-24T08:27:01;1.90;99.90
39875;DHT22;25547;52.530;13.194;2023-01-24T08:29:28;2.00;99.90
39875;DHT22;25547;52.530;13.194;2023-01-24T08:31:54;2.00;99.90
39875;DHT22;25547;52.530;13.194;2023-01-24T08:34:19;1.90;99.90
39875;DHT22;25547;52.530;13.194;2023-01-24T08:36:45;1.90;99.90
39875;DHT22;25547;52.530;13.194;2023-01-24T08:39:13;1.90;99.90
39875;DHT22;25547;52.530;13.194;2023-01-24T08:41:41;2.00;99.90
39875;DHT22;25547;52.530;13.194;2023-01-24T08:44:12;2.10;99.90
39875;DHT22;25547;52.530;13.194;2023-01-24T08:46:38;2.20;99.90
39875;DHT22;25547;52.530;13.194;2023-01-24T08:49:04;2.10;99.90
39875;DHT22;25547;52.530;13.194;2023-01-24T08:51:29;2.10;99.90
39875;DHT22;25547;52.530;13.194;2023-01-24T08:53:55;2.10;99.90
39875;DHT22;25547;52.530;13.194;2023-01-24T08:56:21;2.00;99.90
39875;DHT22;25547;52.530;13.194;2023-01-24T08:58:46;2.00;99.90
39875;DHT22;25547;52.530;13.194;2023-01-24T09:01:12;2.00;99.90
39875;DHT22;25547;52.530;13.194;2023-01-24T09:03:38;1.90;99.90
39875;DHT22;25547;52.530;13.194;2023-01-24T09:06:05;1.70;99.90
39875;DHT22;25547;52.530;13.194;2023-01-24T09:08:31;1.80;99.90
39875;DHT22;25547;52.530;13.194;2023-01-24T09:10:58;1.90;99.90
39875;DHT22;25547;52.530;13.194;2023-01-24T09:13:24;1.90;99.90
39875;DHT22;25547;52.530;13.194;2023-01-24T09:15:50;2.00;99.90
39875;DHT22;25547;52.530;13.194;2023-01-24T09:18:20;2.00;99.90
39875;DHT22;25547;52.530;13.194;2023-01-24T09:20:46;2.10;99.90
39875;DHT22;25547;52.530;13.194;2023-01-24T09:23:13;2.20;99.90
39875;DHT22;25547;52.530;13.194;2023-01-24T09:25:40;2.10;99.90
39875;DHT22;25547;52.530;13.194;2023-01-24T09:28:08;2.10;99.90
39875;DHT22;25547;52.530;13.194;2023-01-24T09:30:34;2.10;99.90
39875;DHT22;25547;52.530;13.194;2023-01-24T09:33:06;2.20;99.90
39875;DHT22;25547;52.530;13.194;2023-01-24T09:35:32;2.30;99.90
39875;DHT22;25547;52.530;13.194;2023-01-24T09:37:58;2.30;99.90
39875;DHT22;25547;52.530;13.194;2023-01-24T09:40:29;2.40;99.90
39875;DHT22;25547;52.530;13.194;2023-01-24T09:43:06;2.30;99.90
39875;DHT22;25547;52.530;13.194;2023-01-24T09:45:37;2.30;99.90
39875;DHT22;25547;52.530;13.194;2023-01-24T09:48:13;2.20;99.90
39875;DHT22;25547;52.530;13.194;2023-01-24T09:50:51;2.20;99.90
39875;DHT22;25547;52.530;13.194;2023-01-24T09:53:21;2.40;99.90
39875;DHT22;25547;52.530;13.194;2023-01-24T09:55:51;2.40;99.90
39875;DHT22;25547;52.530;13.194;2023-01-24T09:59:05;2.40;99.90
39875;DHT22;25547;52.530;13.194;2023-01-24T10:01:14;2.30;99.90
39875;DHT22;25547;52.530;13.194;2023-01-24T10:03:40;2.30;99.90
39875;DHT22;25547;52.530;13.194;2023-01-24T10:06:16;2.50;99.90
39875;DHT22;25547;52.530;13.194;2023-01-24T10:25:03;2.70;99.90
39875;DHT22;25547;52.530;13.194;2023-01-24T10:27:35;2.50;99.90
39875;DHT22;25547;52.530;13.194;2023-01-24T10:30:40;2.60;99.90
39875;DHT22;25547;52.530;13.194;2023-01-24T10:33:04;2.80;99.90
39875;DHT22;25547;52.530;13.194;2023-01-24T10:35:38;2.70;99.90
39875;DHT22;25547;52.530;13.194;2023-01-24T10:38:09;2.70;99.90
39875;DHT22;25547;52.530;13.194;2023-01-24T10:41:00;2.70;99.90
39875;DHT22;25547;52.530;13.194;2023-01-24T10:43:31;2.60;99.90
39875;DHT22;25547;52.530;13.194;2023-01-24T10:48:53;2.70;99.90
39875;DHT22;25547;52.530;13.194;2023-01-24T10:51:23;2.60;99.90
39875;DHT22;25547;52.530;13.194;2023-01-24T10:53:50;2.70;99.90
39875;DHT22;25547;52.530;13.194;2023-01-24T10:56:20;2.80;99.90
39875;DHT22;25547;52.530;13.194;2023-01-24T10:58:56;2.90;99.90
39875;DHT22;25547;52.530;13.194;2023-01-24T11:01:43;3.00;99.90
39875;DHT22;25547;52.530;13.194;2023-01-24T11:04:25;3.00;99.90
39875;DHT22;25547;52.530;13.194;2023-01-24T11:06:51;2.70;99.90
39875;DHT22;25547;52.530;13.194;2023-01-24T11:09:19;3.00;99.90
39875;DHT22;25547;52.530;13.194;2023-01-24T11:11:51;2.90;99.90
39875;DHT22;25547;52.530;13.194;2023-01-24T11:14:35;2.90;99.90
39875;DHT22;25547;52.530;13.194;2023-01-24T11:17:01;2.90;99.90
39875;DHT22;25547;52.530;13.194;2023-01-24T11:19:35;3.00;99.90
39875;DHT22;25547;52.530;13.194;2023-01-24T11:22:22;2.90;99.90
39875;DHT22;25547;52.530;13.194;2023-01-24T11:24:56;2.80;99.90
39875;DHT22;25547;52.530;13.194;2023-01-24T11:27:26;2.80;99.90
39875;DHT22;25547;52.530;13.194;2023-01-24T11:32:52;3.10;99.90
39875;DHT22;25547;52.530;13.194;2023-01-24T11:35:34;3.20;99.90
39875;DHT22;25547;52.530;13.194;2023-01-24T11:38:40;3.20;99.90
39875;DHT22;25547;52.530;13.194;2023-01-24T11:41:10;3.10;99.90
39875;DHT22;25547;52.530;13.194;2023-01-24T11:57:17;3.20;99.90
39875;DHT22;25547;52.530;13.194;2023-01-24T12:05:24;3.10;99.90
39875;DHT22;25547;52.530;13.194;2023-01-24T12:21:19;3.20;99.90
39875;DHT22;25547;52.530;13.194;2023-01-24T12:24:07;3.20;99.90
39875;DHT22;25547;52.530;13.194;2023-01-24T12:26:43;3.20;99.90
39875;DHT22;25547;52.530;13.194;2023-01-24T12:29:33;3.30;99.90
39875;DHT22;25547;52.530;13.194;2023-01-24T12:32:17;3.30;99.90
39875;DHT22;25547;52.530;13.194;2023-01-24T12:45:17;3.20;99.90
39875;DHT22;25547;52.530;13.194;2023-01-24T12:59:02;2.90;99.90
39875;DHT22;25547;52.530;13.194;2023-01-24T13:10:06;2.80;99.90
39875;DHT22;25547;52.530;13.194;2023-01-24T13:12:37;2.90;99.90
39875;DHT22;25547;52.530;13.194;2023-01-24T13:15:29;2.90;99.90
39875;DHT22;25547;52.530;13.194;2023-01-24T13:21:17;2.90;99.90
39875;DHT22;25547;52.530;13.194;2023-01-24T13:24:16;2.80;99.90
39875;DHT22;25547;52.530;13.194;2023-01-24T13:32:20;2.90;99.90
39875;DHT22;25547;52.530;13.194;2023-01-24T13:37:24;3.00;99.90
39875;DHT22;25547;52.530;13.194;2023-01-24T13:42:44;2.90;99.90
39875;DHT22;25547;52.530;13.194;2023-01-24T13:53:57;2.80;99.90
39875;DHT22;25547;52.530;13.194;2023-01-24T13:56:23;3.00;99.90
39875;DHT22;25547;52.530;13.194;2023-01-24T13:58:51;3.10;99.90
39875;DHT22;25547;52.530;13.194;2023-01-24T14:01:17;3.10;99.90
39875;DHT22;25547;52.530;13.194;2023-01-24T14:03:57;3.10;99.90
39875;DHT22;25547;52.530;13.194;2023-01-24T14:06:23;3.20;99.90
39875;DHT22;25547;52.530;13.194;2023-01-24T14:09:01;3.20;99.90
39875;DHT22;25547;52.530;13.194;2023-01-24T14:11:35;3.10;99.90
39875;DHT22;25547;52.530;13.194;2023-01-24T14:14:31;3.10;99.90
39875;DHT22;25547;52.530;13.194;2023-01-24T14:17:02;3.10;99.90
39875;DHT22;25547;52.530;13.194;2023-01-24T14:19:33;3.20;99.90
39875;DHT22;25547;52.530;13.194;2023-01-24T14:25:01;3.10;99.90
39875;DHT22;25547;52.530;13.194;2023-01-24T14:27:37;3.20;99.90
39875;DHT22;25547;52.530;13.194;2023-01-24T14:32:40;3.00;99.90
39875;DHT22;25547;52.530;13.194;2023-01-24T14:35:31;3.00;99.90
39875;DHT22;25547;52.530;13.194;2023-01-24T14:38:17;3.20;99.90
39875;DHT22;25547;52.530;13.194;2023-01-24T14:40:51;3.10;99.90
39875;DHT22;25547;52.530;13.194;2023-01-24T14:43:20;3.10;99.90
39875;DHT22;25547;52.530;13.194;2023-01-24T14:45:47;3.20;99.90
39875;DHT22;25547;52.530;13.194;2023-01-24T14:48:20;3.00;99.90
39875;DHT22;25547;52.530;13.194;2023-01-24T14:50:57;3.00;99.90
39875;DHT22;25547;52.530;13.194;2023-01-24T14:53:28;3.00;99.90
39875;DHT22;25547;52.530;13.194;2023-01-24T14:56:10;2.90;99.90
39875;DHT22;25547;52.530;13.194;2023-01-24T14:58:39;2.80;99.90
39875;DHT22;25547;52.530;13.194;2023-01-24T15:01:29;2.80;99.90
39875;DHT22;25547;52.530;13.194;2023-01-24T15:03:57;2.90;99.90
39875;DHT22;25547;52.530;13.194;2023-01-24T15:06:24;2.90;99.90
39875;DHT22;25547;52.530;13.194;2023-01-24T15:08:57;3.00;99.90
39875;DHT22;25547;52.530;13.194;2023-01-24T15:14:01;3.00;99.90
39875;DHT22;25547;52.530;13.194;2023-01-24T15:16:36;3.00;99.90
39875;DHT22;25547;52.530;13.194;2023-01-24T15:19:16;3.10;99.90
39875;DHT22;25547;52.530;13.194;2023-01-24T15:21:47;3.00;99.90
39875;DHT22;25547;52.530;13.194;2023-01-24T15:24:23;3.00;99.90
39875;DHT22;25547;52.530;13.194;2023-01-24T15:26:50;3.00;99.90
39875;DHT22;25547;52.530;13.194;2023-01-24T15:34:43;3.00;99.90
39875;DHT22;25547;52.530;13.194;2023-01-24T15:37:13;3.10;99.90
39875;DHT22;25547;52.530;13.194;2023-01-24T15:39:39;3.00;99.90
39875;DHT22;25547;52.530;13.194;2023-01-24T15:42:15;2.90;99.90
39875;DHT22;25547;52.530;13.194;2023-01-24T15:45:01;3.10;99.90
39875;DHT22;25547;52.530;13.194;2023-01-24T15:47:27;3.00;99.90
39875;DHT22;25547;52.530;13.194;2023-01-24T15:50:20;2.90;99.90
39875;DHT22;25547;52.530;13.194;2023-01-24T15:53:12;3.00;99.90
39875;DHT22;25547;52.530;13.194;2023-01-24T15:55:38;3.00;99.90
39875;DHT22;25547;52.530;13.194;2023-01-24T15:58:04;3.00;99.90
39875;DHT22;25547;52.530;13.194;2023-01-24T16:00:32;3.10;99.90
39875;DHT22;25547;52.530;13.194;2023-01-24T16:03:00;3.00;99.90
39875;DHT22;25547;52.530;13.194;2023-01-24T16:05:26;3.00;99.90
39875;DHT22;25547;52.530;13.194;2023-01-24T16:07:54;3.00;99.90
39875;DHT22;25547;52.530;13.194;2023-01-24T16:10:20;3.00;99.90
39875;DHT22;25547;52.530;13.194;2023-01-24T16:12:46;3.00;99.90
39875;DHT22;25547;52.530;13.194;2023-01-24T16:15:18;3.10;99.90
39875;DHT22;25547;52.530;13.194;2023-01-24T16:17:47;3.20;99.90
39875;DHT22;25547;52.530;13.194;2023-01-24T16:20:26;3.10;99.90
39875;DHT22;25547;52.530;13.194;2023-01-24T16:22:53;2.90;99.90
39875;DHT22;25547;52.530;13.194;2023-01-24T16:25:20;3.00;99.90
39875;DHT22;25547;52.530;13.194;2023-01-24T16:27:50;3.10;99.90
39875;DHT22;25547;52.530;13.194;2023-01-24T16:30:24;3.20;99.90
39875;DHT22;25547;52.530;13.194;2023-01-24T16:32:51;3.20;99.90
39875;DHT22;25547;52.530;13.194;2023-01-24T16:35:17;3.00;99.90
39875;DHT22;25547;52.530;13.194;2023-01-24T16:37:43;3.10;99.90
39875;DHT22;25547;52.530;13.194;2023-01-24T16:40:14;3.10;99.90
39875;DHT22;25547;52.530;13.194;2023-01-24T16:42:42;3.00;99.90
39875;DHT22;25547;52.530;13.194;2023-01-24T16:45:12;3.00;99.90
39875;DHT22;25547;52.530;13.194;2023-01-24T16:47:41;3.00;99.90
39875;DHT22;25547;52.530;13.194;2023-01-24T16:50:08;3.00;99.90
39875;DHT22;25547;52.530;13.194;2023-01-24T16:52:36;3.00;99.90
39875;DHT22;25547;52.530;13.194;2023-01-24T16:55:02;3.10;99.90
39875;DHT22;25547;52.530;13.194;2023-01-24T16:57:28;3.00;99.90
39875;DHT22;25547;52.530;13.194;2023-01-24T16:59:57;3.00;99.90
39875;DHT22;25547;52.530;13.194;2023-01-24T17:02:23;2.90;99.90
39875;DHT22;25547;52.530;13.194;2023-01-24T17:04:49;2.90;99.90
39875;DHT22;25547;52.530;13.194;2023-01-24T17:07:15;2.90;99.90
39875;DHT22;25547;52.530;13.194;2023-01-24T17:09:43;2.90;99.90
39875;DHT22;25547;52.530;13.194;2023-01-24T17:12:11;2.80;99.90
39875;DHT22;25547;52.530;13.194;2023-01-24T17:14:37;2.80;99.90
39875;DHT22;25547;52.530;13.194;2023-01-24T17:17:07;2.80;99.90
39875;DHT22;25547;52.530;13.194;2023-01-24T17:19:33;2.80;99.90
39875;DHT22;25547;52.530;13.194;2023-01-24T17:22:02;2.80;99.90
39875;DHT22;25547;52.530;13.194;2023-01-24T17:24:33;2.80;99.90
39875;DHT22;25547;52.530;13.194;2023-01-24T17:26:59;2.70;99.90
39875;DHT22;25547;52.530;13.194;2023-01-24T17:29:24;2.70;99.90
39875;DHT22;25547;52.530;13.194;2023-01-24T17:31:53;2.60;99.90
39875;DHT22;25547;52.530;13.194;2023-01-24T17:34:22;2.70;99.90
39875;DHT22;25547;52.530;13.194;2023-01-24T17:36:48;2.70;99.90
39875;DHT22;25547;52.530;13.194;2023-01-24T17:39:13;2.80;99.90
39875;DHT22;25547;52.530;13.194;2023-01-24T17:41:42;2.90;99.90
39875;DHT22;25547;52.530;13.194;2023-01-24T17:44:07;2.90;99.90
39875;DHT22;25547;52.530;13.194;2023-01-24T17:46:33;2.90;99.90
39875;DHT22;25547;52.530;13.194;2023-01-24T17:48:58;2.90;99.90
39875;DHT22;25547;52.530;13.194;2023-01-24T17:51:24;2.90;99.90
39875;DHT22;25547;52.530;13.194;2023-01-24T17:53:50;2.90;99.90
39875;DHT22;25547;52.530;13.194;2023-01-24T17:56:16;2.80;99.90
39875;DHT22;25547;52.530;13.194;2023-01-24T17:58:43;2.90;99.90
39875;DHT22;25547;52.530;13.194;2023-01-24T18:01:09;2.80;99.90
39875;DHT22;25547;52.530;13.194;2023-01-24T18:03:37;2.80;99.90
39875;DHT22;25547;52.530;13.194;2023-01-24T18:06:05;2.70;99.90
39875;DHT22;25547;52.530;13.194;2023-01-24T18:08:33;2.70;99.90